TimeAKST,TemperatureF,Dew PointF,Humidity,Sea Level PressureIn,VisibilityMPH,Wind Direction,Wind SpeedMPH,Gust SpeedMPH,PrecipitationIn,Events,Conditions,WindDirDegrees,DateUTC
12:56 AM,48.9,43.0,80,29.31,10.0,SSE,9.2,19.6,0.03,Rain,Light Rain,150,2012-11-13 09:56:00
1:31 AM,48.2,42.8,82,29.29,10.0,South,9.2,-,0.02,Rain,Light Rain,180,2012-11-13 10:31:00
1:56 AM,48.9,42.1,77,29.31,10.0,SSE,8.1,-,0.02,,Overcast,150,2012-11-13 10:56:00
2:51 AM,48.2,37.4,66,29.30,10.0,South,12.7,23.0,N/A,,Mostly Cloudy,180,2012-11-13 11:51:00
2:56 AM,46.9,37.0,68,29.32,10.0,South,11.5,-,N/A,,Mostly Cloudy,180,2012-11-13 11:56:00
3:56 AM,46.9,35.1,63,29.31,10.0,SSW,11.5,-,N/A,,Overcast,200,2012-11-13 12:56:00
4:56 AM,46.0,34.0,63,29.30,10.0,SSW,11.5,20.7,N/A,,Overcast,200,2012-11-13 13:56:00
5:56 AM,44.1,35.1,71,29.29,10.0,South,12.7,20.7,0.00,Rain,Light Rain,180,2012-11-13 14:56:00
6:56 AM,44.1,32.0,63,29.26,10.0,South,13.8,27.6,0.00,Rain,Light Rain,180,2012-11-13 15:56:00
7:56 AM,43.0,34.0,71,29.23,10.0,SW,12.7,20.7,0.00,Rain,Light Rain,220,2012-11-13 16:56:00
8:08 AM,42.8,32.0,66,29.21,10.0,South,20.7,26.5,0.00,Rain,Light Rain,180,2012-11-13 17:08:00
8:56 AM,44.1,30.9,60,29.20,10.0,South,20.7,39.1,0.01,Rain,Light Rain,170,2012-11-13 17:56:00
9:56 AM,44.1,32.0,63,29.16,10.0,South,31.1,43.7,0.01,Rain,Light Rain,180,2012-11-13 18:56:00
11:14 AM,42.8,35.6,76,29.11,9.0,South,16.1,24.2,0.00,Rain,Light Rain,180,2012-11-13 20:14:00
11:56 AM,44.1,34.0,68,29.11,10.0,South,11.5,26.5,0.02,Rain,Light Rain,170,2012-11-13 20:56:00
12:56 PM,44.1,35.1,71,29.09,10.0,Variable,6.9,21.9,0.00,Rain,Light Rain,0,2012-11-13 21:56:00
1:56 PM,45.0,35.1,68,29.08,10.0,SSW,8.1,-,0.01,Rain,Light Rain,200,2012-11-13 22:56:00
2:19 PM,44.6,35.6,71,29.07,10.0,SSW,19.6,28.8,0.00,Rain,Light Rain,210,2012-11-13 23:19:00
2:56 PM,44.1,36.0,73,29.10,6.0,SSW,20.7,29.9,0.01,Rain,Light Rain,210,2012-11-13 23:56:00
3:56 PM,43.0,36.0,76,29.11,9.0,SW,13.8,21.9,0.01,Rain,Light Rain,220,2012-11-14 00:56:00
4:56 PM,43.0,36.0,76,29.12,9.0,SSE,4.6,-,0.02,Rain,Light Rain,150,2012-11-14 01:56:00
5:54 PM,44.6,33.8,66,29.12,9.0,SW,13.8,21.9,0.00,Rain,Light Rain,230,2012-11-14 02:54:00
5:56 PM,44.1,35.1,71,29.14,9.0,SSW,12.7,21.9,0.00,Rain,Light Rain,210,2012-11-14 02:56:00
6:56 PM,45.0,35.1,68,29.16,10.0,SW,20.7,29.9,0.00,Rain,Light Rain,230,2012-11-14 03:56:00
7:29 PM,44.6,33.8,66,29.15,10.0,SW,25.3,40.3,0.00,Rain,Light Rain,220,2012-11-14 04:29:00
7:56 PM,44.1,33.1,65,29.19,10.0,SW,19.6,42.6,0.00,Rain,Light Rain,230,2012-11-14 04:56:00
8:09 PM,44.6,32.0,61,29.18,10.0,SW,17.3,34.5,0.00,Rain,Light Rain,230,2012-11-14 05:09:00
8:56 PM,43.0,33.1,68,29.21,7.0,SW,24.2,42.6,0.01,Rain,Light Rain,220,2012-11-14 05:56:00
9:25 PM,44.6,33.8,66,29.20,10.0,SW,27.6,46.0,0.00,Rain,Light Rain,220,2012-11-14 06:25:00
9:39 PM,44.6,33.8,66,29.20,10.0,SSW,26.5,48.3,0.00,Rain,Light Rain,210,2012-11-14 06:39:00
9:56 PM,44.1,33.1,65,29.23,10.0,SW,23.0,38.0,0.00,,Overcast,230,2012-11-14 06:56:00
10:56 PM,43.0,33.1,68,29.24,7.0,SSW,24.2,44.9,0.00,Rain,Light Rain,210,2012-11-14 07:56:00
11:42 PM,42.8,33.8,70,29.23,10.0,SSW,28.8,42.6,0.01,Rain,Light Rain,210,2012-11-14 08:42:00
11:56 PM,43.0,32.0,65,29.24,10.0,SSW,26.5,42.6,0.01,Rain,Light Rain,210,2012-11-14 08:56:00